Honolulu, HI

08:54 PM HST am 30. Oktober 2014 (GMT -1000)
Pacific Heights | Change Station
CLOSE
Current Station
Persönliche Wetterstationen
Location: Honolulu, HI
Höhe: 528 ft
Wetterstationen in der Umgebung
aktive Warnung: High Surf Advisory

Höhe 528 ft 21.33 °N, 157.84 °W | Updated 4 seconds ago

Scattered Clouds
Teils Wolkig
75.6 °F
gefühlte 77 °F
N
14.1
Wind Wechselnd Wind aus Ost-Südost
Gusts 14.1 mph

Heute
Max. -- | schwach -- °F
--% Regenrisiko
Gestern
Max. -- | schwach -- °F
Precip. -- inch
6:33 AM 5:56 PM
Erstes Viertel, 52% visible
Druck 30.04 inch
Sichtweite 10.0 Meilen
Wolken Few 3200 ft
Teils Wolkig 5500 ft
Hitzeindex 77 °F
Taupunkt 67 °F
Feuchtigkeit 74%
Regen 0.23 inch
Schneehöhe Nicht verfügbar..
UV 0 von 12
Pollen Nicht verfügbar..
Luftqualität Nicht verfügbar..
Flu Activity Nicht verfügbar..
METAR PHNL 310553Z 08017G24KT 10SM FEW032 SCT055 26/19 A3004 RMK AO2 SLP173 60000 T02610189 10289 20261 53012

More Conditions Fewer Conditions

Druck 30.04 inch
Sichtweite 10.0 Meilen
Wolken Few 3200 ft
Teils Wolkig 5500 ft
Hitzeindex 77 °F
Taupunkt 67 °F
Feuchtigkeit 74%
Regen 0.23 inch
Schneehöhe Nicht verfügbar..
UV 0 von 12
Pollen Nicht verfügbar..
Luftqualität Nicht verfügbar..
Flu Activity Nicht verfügbar..
METAR PHNL 310553Z 08017G24KT 10SM FEW032 SCT055 26/19 A3004 RMK AO2 SLP173 60000 T02610189 10289 20261 53012

More Conditions Fewer Conditions

10-Day Weather Forecast

Almanac

Astronomie

Oct. 30, 2014 Aufgang Untergang
Genaue Zeit
Bürgerliche Dämmerung
Nautische Dämmerung
Astronomische Dämmerung
Mond
Länge des sichtbaren Lichts
Tageslänge
Tomorrow will be .
, % of the Moon is Illuminated

Heutige Rekorde

State Highs State Lows

Community

WunderPhotos

Upload Photos

1,766,571 Fotos hochgeladen!

WunderBlogs® & News

Nearby

Luftqualität

  Luftqualität LQ Index Schadstoff
Not available.

Schneehöhe

Station Depth Höhe

Erdbebenaktivität

Stadt Distance Mag. Time & Date
Minimum magnitude displayed is 2.5.

küstennahe Wassertemperaturen

Ort Temperatur

Wetterstationen in der Umgebung